sensor_id;sensor_type;location;lat;lon;timestamp;pressure;altitude;pressure_sealevel;temperature;humidity
72124;BME280;63818;37.134;-8.548;2023-04-25T00:04:48;101355.2;;;23.1;51.2
72124;BME280;63818;37.134;-8.548;2023-04-25T00:09:34;101354.4;;;23.1;51.6
72124;BME280;63818;37.134;-8.548;2023-04-25T00:14:20;101349.7;;;23.1;51.4
72124;BME280;63818;37.134;-8.548;2023-04-25T00:19:06;101348.5;;;23.1;51.5
72124;BME280;63818;37.134;-8.548;2023-04-25T00:23:52;101350.1;;;23.1;51.4
72124;BME280;63818;37.134;-8.548;2023-04-25T00:28:41;101350.8;;;23.0;51.8
72124;BME280;63818;37.134;-8.548;2023-04-25T00:33:27;101346.9;;;23.0;51.9
72124;BME280;63818;37.134;-8.548;2023-04-25T00:38:13;101340.6;;;23.0;52.2
72124;BME280;63818;37.134;-8.548;2023-04-25T00:42:59;101341.3;;;22.9;52.1
72124;BME280;63818;37.134;-8.548;2023-04-25T00:47:48;101334.2;;;22.9;52.1
72124;BME280;63818;37.134;-8.548;2023-04-25T00:52:36;101329.2;;;22.9;52.0
72124;BME280;63818;37.134;-8.548;2023-04-25T00:57:23;101330.3;;;22.9;52.2
72124;BME280;63818;37.134;-8.548;2023-04-25T01:02:15;101315.8;;;22.9;52.2
72124;BME280;63818;37.134;-8.548;2023-04-25T01:07:01;101320.1;;;22.9;52.5
72124;BME280;63818;37.134;-8.548;2023-04-25T01:11:48;101314.6;;;22.9;52.5
72124;BME280;63818;37.134;-8.548;2023-04-25T01:16:34;101307.1;;;22.8;52.6
72124;BME280;63818;37.134;-8.548;2023-04-25T01:21:29;101297.4;;;22.9;52.6
72124;BME280;63818;37.134;-8.548;2023-04-25T01:26:15;101294.6;;;22.9;52.4
72124;BME280;63818;37.134;-8.548;2023-04-25T01:31:04;101290.7;;;22.8;52.3
72124;BME280;63818;37.134;-8.548;2023-04-25T01:35:51;101297.7;;;22.8;52.2
72124;BME280;63818;37.134;-8.548;2023-04-25T01:40:44;101287.1;;;22.8;52.4
72124;BME280;63818;37.134;-8.548;2023-04-25T01:45:31;101287.1;;;22.8;52.3
72124;BME280;63818;37.134;-8.548;2023-04-25T01:50:18;101280.8;;;22.8;52.5
72124;BME280;63818;37.134;-8.548;2023-04-25T01:55:10;101277.3;;;22.7;52.6
72124;BME280;63818;37.134;-8.548;2023-04-25T01:59:59;101281.5;;;22.7;52.7
72124;BME280;63818;37.134;-8.548;2023-04-25T02:04:46;101278.3;;;22.6;52.8
72124;BME280;63818;37.134;-8.548;2023-04-25T02:09:32;101285.0;;;22.6;52.9
72124;BME280;63818;37.134;-8.548;2023-04-25T02:14:18;101274.4;;;22.6;52.8
72124;BME280;63818;37.134;-8.548;2023-04-25T02:19:04;101282.6;;;22.6;52.7
72124;BME280;63818;37.134;-8.548;2023-04-25T02:23:54;101270.9;;;22.6;52.4
72124;BME280;63818;37.134;-8.548;2023-04-25T02:28:42;101260.7;;;22.6;52.2
72124;BME280;63818;37.134;-8.548;2023-04-25T02:33:28;101265.4;;;22.6;52.1
72124;BME280;63818;37.134;-8.548;2023-04-25T02:38:14;101261.0;;;22.5;52.0
72124;BME280;63818;37.134;-8.548;2023-04-25T02:43:00;101243.4;;;22.5;51.7
72124;BME280;63818;37.134;-8.548;2023-04-25T02:52:37;101246.4;;;22.5;52.1
72124;BME280;63818;37.134;-8.548;2023-04-25T02:57:24;101242.5;;;22.5;52.0
72124;BME280;63818;37.134;-8.548;2023-04-25T03:02:10;101249.6;;;22.5;52.2
72124;BME280;63818;37.134;-8.548;2023-04-25T03:06:58;101255.8;;;22.4;51.8
72124;BME280;63818;37.134;-8.548;2023-04-25T03:11:45;101253.4;;;22.4;51.9
72124;BME280;63818;37.134;-8.548;2023-04-25T03:16:33;101254.6;;;22.4;52.1
72124;BME280;63818;37.134;-8.548;2023-04-25T03:21:19;101253.8;;;22.4;52.0
72124;BME280;63818;37.134;-8.548;2023-04-25T03:26:05;101259.6;;;22.3;51.6
72124;BME280;63818;37.134;-8.548;2023-04-25T03:30:51;101265.0;;;22.3;51.5
72124;BME280;63818;37.134;-8.548;2023-04-25T03:35:37;101254.9;;;22.3;51.4
72124;BME280;63818;37.134;-8.548;2023-04-25T03:40:24;101254.1;;;22.3;51.1
72124;BME280;63818;37.134;-8.548;2023-04-25T03:45:15;101256.4;;;22.2;51.0
72124;BME280;63818;37.134;-8.548;2023-04-25T03:50:02;101250.9;;;22.2;50.9
72124;BME280;63818;37.134;-8.548;2023-04-25T03:54:48;101236.8;;;22.3;50.9
72124;BME280;63818;37.134;-8.548;2023-04-25T03:59:34;101240.0;;;22.2;50.4
72124;BME280;63818;37.134;-8.548;2023-04-25T04:04:23;101240.3;;;22.2;51.0
72124;BME280;63818;37.134;-8.548;2023-04-25T04:09:09;101242.3;;;22.3;50.8
72124;BME280;63818;37.134;-8.548;2023-04-25T04:13:56;101243.1;;;22.2;50.4
72124;BME280;63818;37.134;-8.548;2023-04-25T04:18:43;101239.5;;;22.2;50.1
72124;BME280;63818;37.134;-8.548;2023-04-25T04:23:32;101242.7;;;22.2;50.0
72124;BME280;63818;37.134;-8.548;2023-04-25T04:28:18;101244.2;;;22.2;50.1
72124;BME280;63818;37.134;-8.548;2023-04-25T04:33:04;101246.1;;;22.2;50.1
72124;BME280;63818;37.134;-8.548;2023-04-25T04:37:53;101251.2;;;22.2;50.4
72124;BME280;63818;37.134;-8.548;2023-04-25T04:42:39;101258.9;;;22.1;50.6
72124;BME280;63818;37.134;-8.548;2023-04-25T04:47:37;101253.9;;;22.1;50.4
72124;BME280;63818;37.134;-8.548;2023-04-25T04:52:25;101254.6;;;22.1;50.6
72124;BME280;63818;37.134;-8.548;2023-04-25T04:57:11;101244.8;;;22.1;50.8
72124;BME280;63818;37.134;-8.548;2023-04-25T05:01:57;101252.3;;;22.1;50.8
72124;BME280;63818;37.134;-8.548;2023-04-25T05:06:43;101249.9;;;22.1;50.9
72124;BME280;63818;37.134;-8.548;2023-04-25T05:11:32;101260.0;;;22.1;51.2
72124;BME280;63818;37.134;-8.548;2023-04-25T05:16:20;101260.0;;;22.0;50.9
72124;BME280;63818;37.134;-8.548;2023-04-25T05:21:09;101264.7;;;22.0;51.1
72124;BME280;63818;37.134;-8.548;2023-04-25T05:25:54;101260.8;;;22.0;51.4
72124;BME280;63818;37.134;-8.548;2023-04-25T05:30:42;101263.8;;;21.9;51.4
72124;BME280;63818;37.134;-8.548;2023-04-25T05:35:28;101264.6;;;22.0;51.3
72124;BME280;63818;37.134;-8.548;2023-04-25T05:40:15;101262.6;;;21.9;51.5
72124;BME280;63818;37.134;-8.548;2023-04-25T05:45:10;101278.3;;;22.0;51.3
72124;BME280;63818;37.134;-8.548;2023-04-25T05:49:56;101280.2;;;21.9;51.2
72124;BME280;63818;37.134;-8.548;2023-04-25T05:54:42;101284.1;;;21.9;51.3
72124;BME280;63818;37.134;-8.548;2023-04-25T05:59:28;101288.3;;;21.9;51.4
72124;BME280;63818;37.134;-8.548;2023-04-25T06:04:14;101284.8;;;21.9;51.1
72124;BME280;63818;37.134;-8.548;2023-04-25T06:09:03;101289.8;;;21.9;51.1
72124;BME280;63818;37.134;-8.548;2023-04-25T06:13:49;101297.3;;;21.8;51.5
72124;BME280;63818;37.134;-8.548;2023-04-25T06:18:36;101298.0;;;21.8;51.6
72124;BME280;63818;37.134;-8.548;2023-04-25T06:23:34;101307.0;;;21.8;51.4
72124;BME280;63818;37.134;-8.548;2023-04-25T06:28:23;101308.4;;;21.8;51.3
72124;BME280;63818;37.134;-8.548;2023-04-25T06:33:09;101312.5;;;21.9;51.1
72124;BME280;63818;37.134;-8.548;2023-04-25T06:42:59;101315.6;;;21.8;50.3
72124;BME280;63818;37.134;-8.548;2023-04-25T06:47:52;101320.7;;;21.9;51.0
72124;BME280;63818;37.134;-8.548;2023-04-25T06:52:39;101319.6;;;21.9;51.1
72124;BME280;63818;37.134;-8.548;2023-04-25T06:57:25;101336.4;;;21.9;51.0
72124;BME280;63818;37.134;-8.548;2023-04-25T07:02:11;101338.8;;;21.9;50.8
72124;BME280;63818;37.134;-8.548;2023-04-25T07:06:59;101340.7;;;21.9;50.4
72124;BME280;63818;37.134;-8.548;2023-04-25T07:11:56;101341.9;;;21.9;50.5
72124;BME280;63818;37.134;-8.548;2023-04-25T07:16:42;101329.9;;;22.0;50.4
72124;BME280;63818;37.134;-8.548;2023-04-25T07:21:37;101324.1;;;22.0;49.7
72124;BME280;63818;37.134;-8.548;2023-04-25T07:26:24;101330.0;;;22.0;49.6
72124;BME280;63818;37.134;-8.548;2023-04-25T07:31:12;101334.3;;;22.0;49.7
72124;BME280;63818;37.134;-8.548;2023-04-25T07:36:00;101324.2;;;22.0;49.4
72124;BME280;63818;37.134;-8.548;2023-04-25T07:40:47;101341.0;;;22.1;49.7
72124;BME280;63818;37.134;-8.548;2023-04-25T07:45:34;101330.8;;;22.1;49.7
72124;BME280;63818;37.134;-8.548;2023-04-25T07:50:21;101329.3;;;22.1;49.9
72124;BME280;63818;37.134;-8.548;2023-04-25T07:55:07;101328.2;;;22.1;50.5
72124;BME280;63818;37.134;-8.548;2023-04-25T07:59:55;101326.7;;;22.2;51.1
72124;BME280;63818;37.134;-8.548;2023-04-25T08:04:41;101328.7;;;22.2;50.8
72124;BME280;63818;37.134;-8.548;2023-04-25T08:09:36;101327.2;;;22.3;50.8
72124;BME280;63818;37.134;-8.548;2023-04-25T08:19:21;101330.0;;;22.3;50.0
72124;BME280;63818;37.134;-8.548;2023-04-25T08:24:12;101331.2;;;22.3;49.8
72124;BME280;63818;37.134;-8.548;2023-04-25T08:28:58;101322.6;;;22.3;49.8
72124;BME280;63818;37.134;-8.548;2023-04-25T08:33:46;101326.5;;;22.4;49.9
72124;BME280;63818;37.134;-8.548;2023-04-25T08:38:34;101325.0;;;22.4;49.9
72124;BME280;63818;37.134;-8.548;2023-04-25T08:43:20;101324.2;;;22.4;49.3
72124;BME280;63818;37.134;-8.548;2023-04-25T08:48:16;101313.3;;;22.4;49.4
72124;BME280;63818;37.134;-8.548;2023-04-25T08:53:09;101314.5;;;22.5;49.4
72124;BME280;63818;37.134;-8.548;2023-04-25T08:57:57;101313.0;;;22.5;48.9
72124;BME280;63818;37.134;-8.548;2023-04-25T09:02:44;101312.2;;;22.5;49.1
72124;BME280;63818;37.134;-8.548;2023-04-25T09:07:30;101304.0;;;22.5;48.6
72124;BME280;63818;37.134;-8.548;2023-04-25T09:12:18;101305.6;;;22.5;47.9
72124;BME280;63818;37.134;-8.548;2023-04-25T09:17:07;101303.2;;;22.5;47.1
72124;BME280;63818;37.134;-8.548;2023-04-25T09:21:53;101303.6;;;22.5;46.7
72124;BME280;63818;37.134;-8.548;2023-04-25T09:26:44;101290.3;;;22.5;46.1
72124;BME280;63818;37.134;-8.548;2023-04-25T09:31:35;101299.8;;;22.6;45.2
72124;BME280;63818;37.134;-8.548;2023-04-25T09:36:26;101299.0;;;22.6;44.6
72124;BME280;63818;37.134;-8.548;2023-04-25T09:41:15;101297.8;;;22.6;44.9
72124;BME280;63818;37.134;-8.548;2023-04-25T09:46:08;101302.9;;;22.6;44.6
72124;BME280;63818;37.134;-8.548;2023-04-25T09:51:30;101307.2;;;22.6;44.0
72124;BME280;63818;37.134;-8.548;2023-04-25T09:56:18;101299.1;;;22.6;43.6
72124;BME280;63818;37.134;-8.548;2023-04-25T10:01:06;101303.0;;;22.6;43.6
72124;BME280;63818;37.134;-8.548;2023-04-25T10:05:53;101307.0;;;22.7;43.5
72124;BME280;63818;37.134;-8.548;2023-04-25T10:10:42;101294.9;;;22.7;43.4
72124;BME280;63818;37.134;-8.548;2023-04-25T10:15:29;101303.1;;;22.7;43.2
72124;BME280;63818;37.134;-8.548;2023-04-25T10:20:20;101302.0;;;22.7;43.0
72124;BME280;63818;37.134;-8.548;2023-04-25T10:25:08;101294.9;;;22.7;42.3
72124;BME280;63818;37.134;-8.548;2023-04-25T10:30:03;101291.4;;;22.7;42.1
72124;BME280;63818;37.134;-8.548;2023-04-25T10:34:49;101286.3;;;22.7;41.3
72124;BME280;63818;37.134;-8.548;2023-04-25T10:39:41;101283.9;;;22.7;41.3
72124;BME280;63818;37.134;-8.548;2023-04-25T10:44:29;101280.7;;;22.7;40.8
72124;BME280;63818;37.134;-8.548;2023-04-25T10:49:33;101277.7;;;22.7;40.3
72124;BME280;63818;37.134;-8.548;2023-04-25T10:54:22;101269.4;;;22.7;39.7
72124;BME280;63818;37.134;-8.548;2023-04-25T10:59:13;101274.6;;;22.8;39.4
72124;BME280;63818;37.134;-8.548;2023-04-25T11:04:02;101280.2;;;23.0;42.8
72124;BME280;63818;37.134;-8.548;2023-04-25T11:08:51;101284.6;;;23.1;45.3
72124;BME280;63818;37.134;-8.548;2023-04-25T11:13:38;101289.0;;;23.1;45.9
72124;BME280;63818;37.134;-8.548;2023-04-25T11:23:19;101288.6;;;23.0;46.8
72124;BME280;63818;37.134;-8.548;2023-04-25T11:28:05;101287.4;;;23.1;46.6
72124;BME280;63818;37.134;-8.548;2023-04-25T11:32:51;101284.3;;;23.1;46.2
72124;BME280;63818;37.134;-8.548;2023-04-25T11:37:43;101272.5;;;23.1;45.9
72124;BME280;63818;37.134;-8.548;2023-04-25T11:42:30;101282.8;;;23.1;46.4
72124;BME280;63818;37.134;-8.548;2023-04-25T11:47:18;101282.0;;;23.2;47.0
72124;BME280;63818;37.134;-8.548;2023-04-25T11:52:06;101282.8;;;23.2;47.0
72124;BME280;63818;37.134;-8.548;2023-04-25T11:57:01;101269.1;;;23.2;47.5
72124;BME280;63818;37.134;-8.548;2023-04-25T12:01:50;101265.6;;;23.2;47.3
72124;BME280;63818;37.134;-8.548;2023-04-25T12:06:36;101263.6;;;23.2;47.4
72124;BME280;63818;37.134;-8.548;2023-04-25T12:11:23;101264.8;;;23.2;48.0
72124;BME280;63818;37.134;-8.548;2023-04-25T12:16:12;101258.9;;;23.2;47.8
72124;BME280;63818;37.134;-8.548;2023-04-25T12:20:58;101250.7;;;23.2;47.4
72124;BME280;63818;37.134;-8.548;2023-04-25T12:25:44;97666.0;;;-1.0;46.9
72124;BME280;63818;37.134;-8.548;2023-04-25T12:30:56;101253.5;;;23.2;47.4
72124;BME280;63818;37.134;-8.548;2023-04-25T12:35:45;101248.0;;;23.2;47.2
72124;BME280;63818;37.134;-8.548;2023-04-25T12:40:31;101244.5;;;23.3;46.9
72124;BME280;63818;37.134;-8.548;2023-04-25T12:45:17;101237.8;;;23.3;46.7
72124;BME280;63818;37.134;-8.548;2023-04-25T12:50:11;101238.3;;;23.4;46.0
72124;BME280;63818;37.134;-8.548;2023-04-25T12:54:57;101234.8;;;23.4;45.5
72124;BME280;63818;37.134;-8.548;2023-04-25T12:59:43;101226.5;;;23.4;45.0
72124;BME280;63818;37.134;-8.548;2023-04-25T13:05:18;101220.7;;;23.4;44.6
72124;BME280;63818;37.134;-8.548;2023-04-25T13:10:04;101206.3;;;23.5;44.5
72124;BME280;63818;37.134;-8.548;2023-04-25T13:14:50;101203.1;;;23.5;45.2
72124;BME280;63818;37.134;-8.548;2023-04-25T13:19:39;101205.1;;;23.6;45.2
72124;BME280;63818;37.134;-8.548;2023-04-25T13:24:28;101200.0;;;23.6;45.1
72124;BME280;63818;37.134;-8.548;2023-04-25T13:29:13;101191.1;;;23.7;44.4
72124;BME280;63818;37.134;-8.548;2023-04-25T13:34:02;101196.5;;;23.7;44.3
72124;BME280;63818;37.134;-8.548;2023-04-25T13:38:48;101197.4;;;23.7;44.4
72124;BME280;63818;37.134;-8.548;2023-04-25T13:43:34;101204.9;;;23.8;44.5
72124;BME280;63818;37.134;-8.548;2023-04-25T13:53:11;101187.2;;;23.9;45.5
72124;BME280;63818;37.134;-8.548;2023-04-25T13:57:57;101181.4;;;23.9;45.4
72124;BME280;63818;37.134;-8.548;2023-04-25T14:02:54;101182.6;;;23.9;45.6
72124;BME280;63818;37.134;-8.548;2023-04-25T14:07:42;101179.1;;;24.0;46.2
72124;BME280;63818;37.134;-8.548;2023-04-25T14:12:32;101165.3;;;24.0;46.3
72124;BME280;63818;37.134;-8.548;2023-04-25T14:17:22;101173.6;;;24.1;46.0
72124;BME280;63818;37.134;-8.548;2023-04-25T14:22:09;101162.2;;;24.1;46.1
72124;BME280;63818;37.134;-8.548;2023-04-25T14:26:55;101162.6;;;24.2;46.9
72124;BME280;63818;37.134;-8.548;2023-04-25T14:31:44;101161.9;;;24.3;48.1
72124;BME280;63818;37.134;-8.548;2023-04-25T14:36:30;101158.4;;;24.4;48.4
72124;BME280;63818;37.134;-8.548;2023-04-25T14:41:16;101159.9;;;24.4;47.9
72124;BME280;63818;37.134;-8.548;2023-04-25T14:46:08;101152.1;;;24.4;47.8
72124;BME280;63818;37.134;-8.548;2023-04-25T14:50:54;101156.8;;;24.4;47.1
72124;BME280;63818;37.134;-8.548;2023-04-25T14:55:41;101138.0;;;24.4;47.0
72124;BME280;63818;37.134;-8.548;2023-04-25T15:00:32;101134.5;;;24.5;45.1
72124;BME280;63818;37.134;-8.548;2023-04-25T15:05:19;101124.6;;;24.5;45.3
72124;BME280;63818;37.134;-8.548;2023-04-25T15:10:05;101127.0;;;24.6;45.2
72124;BME280;63818;37.134;-8.548;2023-04-25T15:14:54;101118.4;;;24.6;45.7
72124;BME280;63818;37.134;-8.548;2023-04-25T15:19:41;101121.1;;;24.7;46.5
72124;BME280;63818;37.134;-8.548;2023-04-25T15:24:28;101118.0;;;24.7;46.1
72124;BME280;63818;37.134;-8.548;2023-04-25T15:29:16;101115.6;;;24.7;45.9
72124;BME280;63818;37.134;-8.548;2023-04-25T15:34:04;101107.4;;;24.8;45.6
72124;BME280;63818;37.134;-8.548;2023-04-25T15:38:52;101100.7;;;24.9;44.8
72124;BME280;63818;37.134;-8.548;2023-04-25T15:43:38;101099.1;;;25.1;44.1
72124;BME280;63818;37.134;-8.548;2023-04-25T15:48:24;101084.0;;;25.5;43.0
72124;BME280;63818;37.134;-8.548;2023-04-25T15:53:10;101075.1;;;25.9;42.2
72124;BME280;63818;37.134;-8.548;2023-04-25T15:57:57;101075.3;;;26.4;40.8
72124;BME280;63818;37.134;-8.548;2023-04-25T16:02:44;101073.4;;;26.7;41.0
72124;BME280;63818;37.134;-8.548;2023-04-25T16:07:57;101084.7;;;26.9;41.5
72124;BME280;63818;37.134;-8.548;2023-04-25T16:12:44;101072.6;;;27.1;38.8
72124;BME280;63818;37.134;-8.548;2023-04-25T16:17:30;101066.9;;;27.2;35.2
72124;BME280;63818;37.134;-8.548;2023-04-25T16:22:17;101066.8;;;27.4;30.2
72124;BME280;63818;37.134;-8.548;2023-04-25T16:27:03;101042.5;;;27.6;26.4
72124;BME280;63818;37.134;-8.548;2023-04-25T16:31:56;101071.8;;;27.8;26.7
72124;BME280;63818;37.134;-8.548;2023-04-25T16:36:43;101064.1;;;27.9;27.4
72124;BME280;63818;37.134;-8.548;2023-04-25T16:41:29;101074.6;;;28.0;29.4
72124;BME280;63818;37.134;-8.548;2023-04-25T16:46:17;101054.7;;;28.1;29.1
72124;BME280;63818;37.134;-8.548;2023-04-25T16:51:03;101054.7;;;28.1;30.9
72124;BME280;63818;37.134;-8.548;2023-04-25T16:56:05;101079.9;;;28.2;31.1
72124;BME280;63818;37.134;-8.548;2023-04-25T17:00:52;101070.8;;;28.2;31.2
72124;BME280;63818;37.134;-8.548;2023-04-25T17:05:40;101070.3;;;28.2;32.0
72124;BME280;63818;37.134;-8.548;2023-04-25T17:10:26;101075.9;;;28.2;32.9
72124;BME280;63818;37.134;-8.548;2023-04-25T17:15:12;101090.3;;;28.1;33.7
72124;BME280;63818;37.134;-8.548;2023-04-25T17:20:02;101082.1;;;28.0;32.6
72124;BME280;63818;37.134;-8.548;2023-04-25T17:24:48;101076.4;;;27.9;32.0
72124;BME280;63818;37.134;-8.548;2023-04-25T17:29:37;101069.4;;;27.8;31.4
72124;BME280;63818;37.134;-8.548;2023-04-25T17:34:23;101061.2;;;27.7;31.5
72124;BME280;63818;37.134;-8.548;2023-04-25T17:39:15;101075.6;;;27.6;31.1
72124;BME280;63818;37.134;-8.548;2023-04-25T17:44:01;101060.3;;;27.5;32.4
72124;BME280;63818;37.134;-8.548;2023-04-25T17:48:47;101071.3;;;27.5;32.8
72124;BME280;63818;37.134;-8.548;2023-04-25T17:53:34;101055.0;;;27.4;33.0
72124;BME280;63818;37.134;-8.548;2023-04-25T17:58:20;101055.9;;;27.2;34.3
72124;BME280;63818;37.134;-8.548;2023-04-25T18:03:08;101048.9;;;27.2;32.9
72124;BME280;63818;37.134;-8.548;2023-04-25T18:07:55;101056.1;;;27.1;33.2
72124;BME280;63818;37.134;-8.548;2023-04-25T18:12:41;101034.5;;;27.0;32.3
72124;BME280;63818;37.134;-8.548;2023-04-25T18:17:27;101047.1;;;27.0;32.1
72124;BME280;63818;37.134;-8.548;2023-04-25T18:22:13;101038.1;;;26.9;32.6
72124;BME280;63818;37.134;-8.548;2023-04-25T18:26:59;101036.6;;;26.8;33.2
72124;BME280;63818;37.134;-8.548;2023-04-25T18:31:46;101052.4;;;26.8;33.5
72124;BME280;63818;37.134;-8.548;2023-04-25T18:36:33;101041.9;;;26.7;34.1
72124;BME280;63818;37.134;-8.548;2023-04-25T18:41:20;101052.2;;;26.6;34.7
72124;BME280;63818;37.134;-8.548;2023-04-25T18:46:20;101045.6;;;26.6;35.1
72124;BME280;63818;37.134;-8.548;2023-04-25T18:51:08;101051.2;;;26.4;35.9
72124;BME280;63818;37.134;-8.548;2023-04-25T18:55:54;101050.1;;;26.3;36.3
72124;BME280;63818;37.134;-8.548;2023-04-25T19:00:40;101051.0;;;26.2;35.9
72124;BME280;63818;37.134;-8.548;2023-04-25T19:05:28;101046.7;;;26.1;36.0
72124;BME280;63818;37.134;-8.548;2023-04-25T19:10:17;101038.6;;;26.0;35.4
72124;BME280;63818;37.134;-8.548;2023-04-25T19:15:03;101046.9;;;25.8;34.7
72124;BME280;63818;37.134;-8.548;2023-04-25T19:19:49;101050.5;;;25.8;33.9
72124;BME280;63818;37.134;-8.548;2023-04-25T19:24:37;101053.3;;;25.7;33.5
72124;BME280;63818;37.134;-8.548;2023-04-25T19:29:25;101055.7;;;25.6;33.1
72124;BME280;63818;37.134;-8.548;2023-04-25T19:34:16;101060.4;;;25.5;32.3
72124;BME280;63818;37.134;-8.548;2023-04-25T19:39:07;101047.1;;;25.5;32.1
72124;BME280;63818;37.134;-8.548;2023-04-25T19:43:53;101045.9;;;25.5;31.6
72124;BME280;63818;37.134;-8.548;2023-04-25T19:48:40;101041.6;;;25.4;31.6
72124;BME280;63818;37.134;-8.548;2023-04-25T19:53:35;101045.5;;;25.4;31.2
72124;BME280;63818;37.134;-8.548;2023-04-25T19:58:21;101052.2;;;25.4;30.9
72124;BME280;63818;37.134;-8.548;2023-04-25T20:03:09;101054.6;;;25.4;30.4
72124;BME280;63818;37.134;-8.548;2023-04-25T20:07:56;101058.1;;;25.4;30.0
72124;BME280;63818;37.134;-8.548;2023-04-25T20:12:45;101061.2;;;25.4;30.0
72124;BME280;63818;37.134;-8.548;2023-04-25T20:17:36;101058.5;;;25.4;29.8
72124;BME280;63818;37.134;-8.548;2023-04-25T20:22:22;101071.8;;;25.4;30.0
72124;BME280;63818;37.134;-8.548;2023-04-25T20:27:12;101075.8;;;25.4;29.7
72124;BME280;63818;37.134;-8.548;2023-04-25T20:32:01;101077.8;;;25.4;29.5
72124;BME280;63818;37.134;-8.548;2023-04-25T20:36:52;101079.7;;;25.4;29.6
72124;BME280;63818;37.134;-8.548;2023-04-25T20:41:40;101084.8;;;25.4;29.2
72124;BME280;63818;37.134;-8.548;2023-04-25T20:46:26;101099.4;;;25.4;29.3
72124;BME280;63818;37.134;-8.548;2023-04-25T20:51:12;101100.6;;;25.4;29.3
72124;BME280;63818;37.134;-8.548;2023-04-25T20:56:01;101101.4;;;25.4;28.8
72124;BME280;63818;37.134;-8.548;2023-04-25T21:00:47;101109.6;;;25.4;29.0
72124;BME280;63818;37.134;-8.548;2023-04-25T21:05:33;101107.3;;;25.4;28.7
72124;BME280;63818;37.134;-8.548;2023-04-25T21:10:19;101108.4;;;25.3;28.5
72124;BME280;63818;37.134;-8.548;2023-04-25T21:15:05;101110.8;;;25.3;28.9
72124;BME280;63818;37.134;-8.548;2023-04-25T21:19:51;101118.3;;;25.3;28.8
72124;BME280;63818;37.134;-8.548;2023-04-25T21:24:37;101117.5;;;25.3;29.2
72124;BME280;63818;37.134;-8.548;2023-04-25T21:29:23;101125.0;;;25.3;29.1
72124;BME280;63818;37.134;-8.548;2023-04-25T21:34:11;101115.2;;;25.3;29.5
72124;BME280;63818;37.134;-8.548;2023-04-25T21:39:00;101123.4;;;25.3;29.7
72124;BME280;63818;37.134;-8.548;2023-04-25T21:43:46;101115.9;;;25.2;30.1
72124;BME280;63818;37.134;-8.548;2023-04-25T21:48:32;101118.3;;;25.2;30.1
72124;BME280;63818;37.134;-8.548;2023-04-25T21:53:22;101116.8;;;25.2;30.4
72124;BME280;63818;37.134;-8.548;2023-04-25T21:58:08;101112.4;;;25.2;30.0
72124;BME280;63818;37.134;-8.548;2023-04-25T22:02:54;101109.3;;;25.2;30.0
72124;BME280;63818;37.134;-8.548;2023-04-25T22:07:41;101111.6;;;25.1;29.7
72124;BME280;63818;37.134;-8.548;2023-04-25T22:12:32;101112.8;;;25.1;30.2
72124;BME280;63818;37.134;-8.548;2023-04-25T22:17:18;101108.5;;;25.2;30.3
72124;BME280;63818;37.134;-8.548;2023-04-25T22:22:04;101114.8;;;25.1;30.1
72124;BME280;63818;37.134;-8.548;2023-04-25T22:26:53;101112.1;;;25.1;29.8
72124;BME280;63818;37.134;-8.548;2023-04-25T22:31:39;101110.9;;;25.1;30.2
72124;BME280;63818;37.134;-8.548;2023-04-25T22:36:25;101108.1;;;25.1;30.5
72124;BME280;63818;37.134;-8.548;2023-04-25T22:41:14;101107.0;;;25.0;30.4
72124;BME280;63818;37.134;-8.548;2023-04-25T22:46:00;101110.5;;;25.0;30.5
72124;BME280;63818;37.134;-8.548;2023-04-25T22:50:49;101105.8;;;25.0;30.8
72124;BME280;63818;37.134;-8.548;2023-04-25T22:55:36;101108.9;;;25.0;30.9
72124;BME280;63818;37.134;-8.548;2023-04-25T23:00:32;101119.5;;;25.0;31.2
72124;BME280;63818;37.134;-8.548;2023-04-25T23:05:18;101127.0;;;25.0;31.8
72124;BME280;63818;37.134;-8.548;2023-04-25T23:10:08;101122.3;;;24.9;32.0
72124;BME280;63818;37.134;-8.548;2023-04-25T23:14:54;101123.9;;;24.9;32.3
72124;BME280;63818;37.134;-8.548;2023-04-25T23:19:40;101124.2;;;24.9;32.5
72124;BME280;63818;37.134;-8.548;2023-04-25T23:24:26;101123.5;;;24.9;32.8
72124;BME280;63818;37.134;-8.548;2023-04-25T23:29:15;101132.5;;;24.9;32.8
72124;BME280;63818;37.134;-8.548;2023-04-25T23:34:01;101127.8;;;24.9;32.9
72124;BME280;63818;37.134;-8.548;2023-04-25T23:38:52;101122.7;;;24.8;33.2
72124;BME280;63818;37.134;-8.548;2023-04-25T23:43:38;101119.9;;;24.8;33.8
72124;BME280;63818;37.134;-8.548;2023-04-25T23:48:25;101123.9;;;24.8;33.5
72124;BME280;63818;37.134;-8.548;2023-04-25T23:53:14;101113.6;;;24.8;32.9
72124;BME280;63818;37.134;-8.548;2023-04-25T23:58:01;101110.1;;;24.8;33.0
